createdAt,value
2023-02-16T00:00:27.401Z,98.63
2023-02-16T00:02:54.203Z,95.50
2023-02-16T00:05:33.598Z,89.97
2023-02-16T00:08:01.385Z,95.13
2023-02-16T00:10:33.024Z,106.32
2023-02-16T00:13:18.393Z,111.87
2023-02-16T00:15:46.053Z,109.03
2023-02-16T00:18:17.441Z,100.88
2023-02-16T00:20:44.214Z,111.35
2023-02-16T00:23:10.744Z,110.30
2023-02-16T00:25:37.358Z,126.60
2023-02-16T00:28:07.473Z,112.75
2023-02-16T00:30:34.240Z,109.47
2023-02-16T00:33:01.278Z,107.43
2023-02-16T00:35:28.121Z,103.22
2023-02-16T00:37:54.663Z,96.82
2023-02-16T00:40:21.149Z,104.28
2023-02-16T00:42:47.852Z,115.40
2023-02-16T00:45:20.009Z,94.30
2023-02-16T00:47:49.286Z,100.13
2023-02-16T00:50:18.673Z,104.22
2023-02-16T00:52:46.391Z,103.90
2023-02-16T00:55:19.596Z,110.13
2023-02-16T00:57:55.988Z,102.82
2023-02-16T01:00:30.113Z,109.57
2023-02-16T01:03:00.825Z,113.07
2023-02-16T01:05:28.414Z,114.47
2023-02-16T01:08:13.788Z,113.97
2023-02-16T01:10:58.940Z,112.35
2023-02-16T01:13:28.492Z,111.20
2023-02-16T01:15:55.412Z,119.35
2023-02-16T01:18:22.041Z,119.45
2023-02-16T01:20:49.630Z,117.03
2023-02-16T01:23:16.185Z,118.10
2023-02-16T01:25:42.837Z,108.65
2023-02-16T01:28:21.583Z,109.63
2023-02-16T01:30:49.358Z,103.95
2023-02-16T01:33:15.890Z,108.25
2023-02-16T01:35:42.683Z,117.60
2023-02-16T01:38:18.696Z,109.00
2023-02-16T01:41:01.021Z,121.80
2023-02-16T01:43:47.412Z,112.43
2023-02-16T01:46:19.569Z,104.00
2023-02-16T01:48:46.081Z,102.43
2023-02-16T01:51:21.433Z,98.20
2023-02-16T01:54:02.584Z,104.60
2023-02-16T01:56:45.790Z,117.13
2023-02-16T02:00:00.867Z,125.10
2023-02-16T02:02:40.986Z,116.93
2023-02-16T02:05:37.025Z,116.82
2023-02-16T02:08:09.630Z,109.30
2023-02-16T02:10:48.330Z,115.38
2023-02-16T02:13:40.006Z,110.38
2023-02-16T02:16:07.240Z,128.82
2023-02-16T02:18:34.516Z,123.68
2023-02-16T02:21:28.773Z,113.90
2023-02-16T02:24:34.552Z,117.07
2023-02-16T02:27:20.999Z,116.72
2023-02-16T02:30:17.056Z,126.32
2023-02-16T02:33:01.990Z,111.60
2023-02-16T02:35:55.124Z,103.53
2023-02-16T02:38:36.580Z,105.05
2023-02-16T02:41:17.787Z,116.85
2023-02-16T02:44:05.893Z,118.93
2023-02-16T02:46:35.298Z,125.85
2023-02-16T02:49:01.944Z,121.32
2023-02-16T02:51:28.694Z,122.40
2023-02-16T02:54:45.094Z,109.70
2023-02-16T02:57:49.206Z,113.65
2023-02-16T03:00:40.059Z,108.15
2023-02-16T03:03:30.215Z,105.38
2023-02-16T03:06:09.497Z,109.55
2023-02-16T03:08:41.034Z,105.55
2023-02-16T03:11:39.540Z,116.75
2023-02-16T03:14:13.987Z,105.88
2023-02-16T03:16:49.628Z,102.63
2023-02-16T03:19:37.025Z,113.97
2023-02-16T03:22:23.216Z,98.30
2023-02-16T03:25:08.621Z,98.30
2023-02-16T03:27:59.411Z,99.28
2023-02-16T03:30:28.010Z,103.75
2023-02-16T03:32:54.844Z,99.85
2023-02-16T03:35:21.673Z,102.05
2023-02-16T03:37:48.353Z,97.53
2023-02-16T03:40:28.623Z,93.40
2023-02-16T03:43:03.856Z,100.55
2023-02-16T03:45:32.362Z,98.68
2023-02-16T03:47:58.928Z,106.35
2023-02-16T03:50:27.088Z,109.30
2023-02-16T03:53:06.623Z,105.35
2023-02-16T03:55:34.270Z,110.63
2023-02-16T03:58:01.019Z,113.47
2023-02-16T04:00:27.788Z,115.15
2023-02-16T04:02:54.347Z,114.43
2023-02-16T04:05:21.295Z,129.02
2023-02-16T04:07:47.907Z,127.45
2023-02-16T04:10:14.557Z,131.07
2023-02-16T04:12:41.073Z,105.07
2023-02-16T04:15:16.210Z,125.43
2023-02-16T04:17:42.994Z,107.15
2023-02-16T04:20:12.317Z,112.25
2023-02-16T04:22:38.829Z,112.63
2023-02-16T04:25:05.767Z,104.65
2023-02-16T04:27:32.335Z,92.70
2023-02-16T04:29:59.025Z,91.32
2023-02-16T04:32:25.632Z,93.90
2023-02-16T04:34:52.170Z,91.82
2023-02-16T04:37:18.873Z,98.47
2023-02-16T04:39:45.389Z,89.85
2023-02-16T04:42:12.162Z,91.35
2023-02-16T04:44:39.377Z,91.35
2023-02-16T04:47:05.972Z,87.80
2023-02-16T04:49:32.525Z,93.38
2023-02-16T04:52:00.877Z,84.47
2023-02-16T04:54:27.951Z,77.63
2023-02-16T04:56:54.712Z,76.00
2023-02-16T04:59:21.308Z,80.38
2023-02-16T05:01:49.175Z,82.57
2023-02-16T05:04:16.615Z,79.97
2023-02-16T05:06:43.439Z,90.20
2023-02-16T05:09:10.480Z,85.95
2023-02-16T05:11:55.934Z,89.63
2023-02-16T05:14:47.242Z,75.10
2023-02-16T05:17:19.910Z,87.75
2023-02-16T05:22:15.280Z,81.57
2023-02-16T05:24:42.888Z,78.25
2023-02-16T05:27:13.646Z,71.20
2023-02-16T05:29:40.406Z,72.18
2023-02-16T05:32:07.114Z,73.50
2023-02-16T05:34:33.779Z,73.93
2023-02-16T05:37:00.501Z,86.28
2023-02-16T05:39:27.214Z,82.55
2023-02-16T05:41:53.736Z,91.80
2023-02-16T05:44:20.335Z,86.20
2023-02-16T05:46:46.952Z,86.90
2023-02-16T05:49:14.814Z,87.00
2023-02-16T05:51:42.012Z,82.93
2023-02-16T05:54:10.861Z,80.80
2023-02-16T05:56:37.537Z,83.53
2023-02-16T05:59:04.140Z,86.30
2023-02-16T06:01:30.791Z,84.47
2023-02-16T06:03:57.598Z,91.90
2023-02-16T06:06:24.195Z,80.72
2023-02-16T06:08:51.312Z,79.35
2023-02-16T06:11:36.165Z,75.95
2023-02-16T06:14:13.917Z,84.13
2023-02-16T06:16:42.170Z,83.35
2023-02-16T06:19:09.583Z,88.57
2023-02-16T06:21:38.469Z,85.05
2023-02-16T06:24:05.896Z,83.25
2023-02-16T06:26:32.490Z,89.05
2023-02-16T06:28:59.289Z,82.57
2023-02-16T06:31:26.521Z,79.45
2023-02-16T06:33:54.238Z,89.10
2023-02-16T06:36:20.848Z,135.73
2023-02-16T06:38:47.456Z,73.07
2023-02-16T06:41:31.720Z,85.80
2023-02-16T06:44:03.809Z,101.78
2023-02-16T06:46:30.600Z,86.25
2023-02-16T06:48:57.597Z,85.80
2023-02-16T06:51:24.486Z,99.45
2023-02-16T06:53:51.227Z,85.28
2023-02-16T06:56:17.844Z,103.43
2023-02-16T06:58:44.346Z,86.95
2023-02-16T07:01:11.353Z,81.45
2023-02-16T07:03:38.024Z,102.22
2023-02-16T07:06:04.764Z,78.55
2023-02-16T07:08:31.496Z,96.00
2023-02-16T07:10:58.042Z,94.93
2023-02-16T07:13:24.602Z,87.85
2023-02-16T07:15:51.197Z,90.13
2023-02-16T07:18:17.818Z,91.68
2023-02-16T07:20:44.505Z,87.97
2023-02-16T07:23:11.029Z,82.05
2023-02-16T07:25:37.657Z,76.28
2023-02-16T07:28:04.535Z,61.95
2023-02-16T07:30:31.459Z,76.80
2023-02-16T07:32:58.092Z,71.20
2023-02-16T07:35:24.816Z,58.35
2023-02-16T07:37:51.346Z,63.67
2023-02-16T07:40:18.098Z,64.30
2023-02-16T07:42:44.626Z,63.05
2023-02-16T07:45:11.261Z,63.35
2023-02-16T07:47:37.788Z,58.05
2023-02-16T07:50:05.232Z,60.92
2023-02-16T07:52:31.835Z,57.72
2023-02-16T07:54:59.497Z,52.72
2023-02-16T07:57:27.667Z,54.53
2023-02-16T07:59:55.069Z,62.17
2023-02-16T08:02:23.380Z,48.40
2023-02-16T08:04:52.748Z,68.18
2023-02-16T08:07:20.401Z,62.92
2023-02-16T08:09:47.228Z,60.42
2023-02-16T08:12:15.332Z,59.40
2023-02-16T08:14:42.402Z,54.83
2023-02-16T08:17:09.355Z,54.92
2023-02-16T08:19:37.220Z,63.30
2023-02-16T08:22:04.563Z,51.97
2023-02-16T08:24:31.998Z,48.95
2023-02-16T08:26:58.553Z,49.05
2023-02-16T08:29:25.296Z,51.08
2023-02-16T08:31:53.421Z,50.33
2023-02-16T08:34:20.432Z,49.55
2023-02-16T08:36:51.275Z,45.97
2023-02-16T08:39:20.350Z,42.83
2023-02-16T08:41:48.466Z,47.45
2023-02-16T08:44:16.310Z,42.15
2023-02-16T08:46:44.676Z,45.53
2023-02-16T08:49:11.730Z,49.10
2023-02-16T08:51:42.934Z,46.97
2023-02-16T08:54:13.797Z,46.67
2023-02-16T08:56:41.753Z,49.83
2023-02-16T08:59:08.302Z,50.17
2023-02-16T09:01:35.958Z,49.17
2023-02-16T09:04:02.932Z,45.47
2023-02-16T09:06:29.515Z,50.25
2023-02-16T09:08:57.435Z,46.13
2023-02-16T09:11:25.471Z,50.72
2023-02-16T09:13:52.242Z,47.30
2023-02-16T09:16:24.779Z,48.50
2023-02-16T09:21:21.909Z,64.55
2023-02-16T09:23:50.295Z,48.80
2023-02-16T09:26:18.934Z,46.85
2023-02-16T09:28:47.304Z,46.53
2023-02-16T09:31:20.166Z,46.60
2023-02-16T09:33:46.848Z,39.33
2023-02-16T09:36:13.875Z,46.88
2023-02-16T09:38:40.885Z,49.28
2023-02-16T09:41:15.813Z,42.17
2023-02-16T09:44:13.530Z,50.83
2023-02-16T09:46:41.954Z,53.13
2023-02-16T09:49:34.956Z,52.13
2023-02-16T09:54:55.890Z,49.00
2023-02-16T09:57:31.525Z,44.10
2023-02-16T09:59:58.101Z,49.50
2023-02-16T10:02:48.118Z,58.85
2023-02-16T10:05:20.330Z,72.47
2023-02-16T10:08:05.651Z,45.70
2023-02-16T10:10:44.696Z,50.97
2023-02-16T10:13:22.754Z,49.17
2023-02-16T10:15:51.940Z,51.28
2023-02-16T10:18:26.990Z,61.00
2023-02-16T10:20:56.591Z,50.65
2023-02-16T10:23:37.881Z,49.42
2023-02-16T10:26:17.978Z,59.83
2023-02-16T10:28:55.357Z,51.50
2023-02-16T10:31:43.253Z,46.72
2023-02-16T10:34:23.071Z,47.10
2023-02-16T10:37:09.536Z,41.72
2023-02-16T10:40:25.976Z,41.95
2023-02-16T10:43:18.179Z,46.42
2023-02-16T10:45:52.750Z,50.28
2023-02-16T10:48:21.621Z,46.92
2023-02-16T10:50:54.155Z,55.28
2023-02-16T10:53:33.327Z,46.25
2023-02-16T10:56:00.182Z,45.15
2023-02-16T10:58:36.546Z,41.45
2023-02-16T11:01:28.105Z,38.35
2023-02-16T11:03:54.728Z,47.90
2023-02-16T11:06:25.553Z,45.10
2023-02-16T11:08:57.741Z,41.25
2023-02-16T11:11:25.890Z,47.40
2023-02-16T11:14:01.440Z,42.13
2023-02-16T11:16:29.634Z,36.85
2023-02-16T11:19:21.937Z,43.95
2023-02-16T11:21:58.510Z,35.85
2023-02-16T11:24:42.850Z,37.47
2023-02-16T11:27:24.290Z,39.10
2023-02-16T11:29:50.970Z,41.88
2023-02-16T11:32:19.659Z,39.78
2023-02-16T11:34:49.332Z,44.58
2023-02-16T11:37:25.042Z,42.80
2023-02-16T11:39:55.837Z,40.67
2023-02-16T11:42:37.793Z,40.72
2023-02-16T11:45:06.523Z,48.78
2023-02-16T11:47:36.056Z,40.55
2023-02-16T11:50:21.040Z,37.97
2023-02-16T11:52:52.971Z,39.30
2023-02-16T11:55:27.100Z,38.08
2023-02-16T11:57:54.180Z,41.20
2023-02-16T12:00:22.733Z,44.92
2023-02-16T12:03:17.549Z,39.25
2023-02-16T12:05:58.149Z,41.95
2023-02-16T12:08:48.057Z,42.15
2023-02-16T12:11:40.069Z,39.95
2023-02-16T12:14:37.638Z,40.08
2023-02-16T12:17:18.940Z,38.00
2023-02-16T12:19:48.401Z,39.33
2023-02-16T12:22:14.902Z,40.13
2023-02-16T12:25:02.730Z,40.85
2023-02-16T12:27:42.513Z,39.00
2023-02-16T12:30:12.253Z,41.83
2023-02-16T12:33:07.981Z,45.42
2023-02-16T12:35:48.539Z,41.42
2023-02-16T12:38:24.683Z,83.28
2023-02-16T12:41:00.253Z,46.47
2023-02-16T12:43:41.287Z,76.07
2023-02-16T12:46:30.552Z,47.72
2023-02-16T12:49:02.520Z,40.63
2023-02-16T12:51:36.919Z,40.20
2023-02-16T12:54:25.330Z,48.30
2023-02-16T12:57:04.829Z,44.47
2023-02-16T12:59:44.398Z,46.63
2023-02-16T13:02:23.906Z,41.30
2023-02-16T13:05:03.321Z,44.92
2023-02-16T13:07:38.614Z,45.78
2023-02-16T13:10:39.221Z,39.78
2023-02-16T13:13:12.546Z,45.95
2023-02-16T13:15:43.707Z,46.58
2023-02-16T13:18:25.749Z,43.40
2023-02-16T13:21:00.151Z,45.28
2023-02-16T13:23:40.366Z,41.55
2023-02-16T13:26:32.365Z,46.28
2023-02-16T13:29:23.351Z,44.60
2023-02-16T13:32:22.971Z,45.88
2023-02-16T13:35:04.094Z,46.33
2023-02-16T13:37:48.582Z,43.03
2023-02-16T13:40:43.711Z,51.05
2023-02-16T13:43:31.950Z,69.85
2023-02-16T13:46:00.256Z,43.95
2023-02-16T13:48:37.610Z,46.10
2023-02-16T13:51:11.787Z,54.00
2023-02-16T13:53:41.686Z,43.72
2023-02-16T13:56:30.608Z,45.20
2023-02-16T13:58:59.083Z,45.13
2023-02-16T14:01:28.349Z,43.00
2023-02-16T14:03:54.879Z,42.45
2023-02-16T14:06:33.983Z,45.15
2023-02-16T14:09:13.044Z,45.83
2023-02-16T14:11:52.880Z,49.58
2023-02-16T14:14:41.465Z,45.25
2023-02-16T14:17:21.625Z,49.25
2023-02-16T14:19:55.337Z,47.80
2023-02-16T14:22:50.168Z,49.47
2023-02-16T14:25:19.892Z,45.13
2023-02-16T14:27:51.365Z,52.25
2023-02-16T14:30:24.224Z,49.88
2023-02-16T14:32:58.634Z,62.42
2023-02-16T14:35:29.688Z,84.90
2023-02-16T14:38:00.924Z,51.95
2023-02-16T14:40:36.262Z,49.90
2023-02-16T14:43:06.057Z,51.13
2023-02-16T14:46:01.836Z,46.50
2023-02-16T14:48:55.041Z,48.05
2023-02-16T14:51:59.057Z,46.28
2023-02-16T14:54:37.809Z,48.40
2023-02-16T14:57:14.956Z,52.28
2023-02-16T14:59:52.357Z,120.95
2023-02-16T15:02:28.635Z,53.63
2023-02-16T15:04:56.318Z,48.05
2023-02-16T15:07:25.564Z,46.50
2023-02-16T15:09:57.118Z,49.28
2023-02-16T15:12:33.481Z,44.70
2023-02-16T15:15:03.627Z,46.03
2023-02-16T15:17:38.139Z,48.25
2023-02-16T15:20:17.596Z,43.78
2023-02-16T15:22:53.628Z,50.05
2023-02-16T15:25:28.249Z,44.95
2023-02-16T15:28:11.274Z,49.22
2023-02-16T15:30:41.139Z,48.80
2023-02-16T15:33:25.425Z,51.35
2023-02-16T15:35:54.215Z,48.35
2023-02-16T15:38:23.632Z,47.00
2023-02-16T15:40:59.617Z,49.22
2023-02-16T15:43:34.396Z,41.88
2023-02-16T15:46:03.852Z,48.35
2023-02-16T15:48:38.222Z,44.47
2023-02-16T15:51:11.614Z,48.80
2023-02-16T15:53:51.965Z,49.03
2023-02-16T15:56:30.204Z,41.17
2023-02-16T15:59:00.910Z,48.33
2023-02-16T16:01:34.934Z,44.60
2023-02-16T16:04:21.999Z,42.95
2023-02-16T16:06:51.074Z,49.03
2023-02-16T16:09:23.818Z,47.97
2023-02-16T16:11:51.930Z,49.13
2023-02-16T16:14:19.194Z,48.47
2023-02-16T16:16:46.150Z,120.60
2023-02-16T16:19:22.157Z,47.08
2023-02-16T16:21:56.877Z,54.00
2023-02-16T16:24:35.584Z,48.88
2023-02-16T16:27:08.621Z,54.40
2023-02-16T16:29:41.485Z,46.97
2023-02-16T16:32:25.355Z,51.17
2023-02-16T16:34:52.490Z,61.42
2023-02-16T16:37:26.555Z,51.35
2023-02-16T16:40:01.056Z,42.35
2023-02-16T16:42:28.019Z,48.45
2023-02-16T16:45:02.433Z,44.33
2023-02-16T16:47:40.326Z,47.05
2023-02-16T16:50:09.693Z,45.78
2023-02-16T16:52:51.667Z,41.30
2023-02-16T16:55:18.668Z,68.18
2023-02-16T16:57:46.199Z,43.85
2023-02-16T17:00:13.825Z,45.53
2023-02-16T17:02:41.492Z,52.88
2023-02-16T17:05:08.305Z,43.67
2023-02-16T17:07:34.993Z,163.00
2023-02-16T17:10:01.593Z,47.08
2023-02-16T17:12:28.430Z,45.50
2023-02-16T17:14:56.111Z,48.10
2023-02-16T17:17:22.721Z,51.85
2023-02-16T17:19:49.874Z,43.90
2023-02-16T17:22:18.983Z,46.40
2023-02-16T17:24:46.142Z,45.42
2023-02-16T17:27:13.669Z,44.53
2023-02-16T17:29:42.769Z,44.95
2023-02-16T17:32:09.744Z,51.78
2023-02-16T17:34:36.422Z,46.55
2023-02-16T17:37:07.319Z,50.88
2023-02-16T17:39:35.102Z,49.88
2023-02-16T17:42:02.035Z,49.13
2023-02-16T17:44:28.606Z,48.88
2023-02-16T17:46:55.236Z,50.22
2023-02-16T17:49:22.095Z,51.58
2023-02-16T17:51:48.674Z,47.10
2023-02-16T17:54:15.285Z,52.53
2023-02-16T17:56:45.300Z,48.22
2023-02-16T17:59:15.209Z,58.40
2023-02-16T18:01:43.206Z,49.90
2023-02-16T18:04:09.993Z,47.88
2023-02-16T18:06:36.999Z,47.60
2023-02-16T18:09:04.225Z,47.08
2023-02-16T18:11:30.936Z,49.63
2023-02-16T18:13:57.639Z,45.85
2023-02-16T18:16:27.296Z,51.33
2023-02-16T18:18:54.862Z,47.33
2023-02-16T18:21:21.470Z,46.20
2023-02-16T18:23:48.216Z,47.55
2023-02-16T18:26:16.460Z,44.15
2023-02-16T18:28:43.481Z,48.03
2023-02-16T18:31:10.379Z,48.78
2023-02-16T18:33:37.571Z,49.55
2023-02-16T18:36:05.096Z,53.22
2023-02-16T18:38:31.910Z,51.42
2023-02-16T18:40:58.570Z,50.22
2023-02-16T18:43:25.174Z,46.55
2023-02-16T18:45:51.807Z,43.45
2023-02-16T18:48:18.475Z,46.47
2023-02-16T18:50:45.463Z,42.60
2023-02-16T18:53:12.170Z,44.00
2023-02-16T18:55:38.940Z,46.95
2023-02-16T18:58:08.234Z,44.95
2023-02-16T19:00:36.079Z,46.83
2023-02-16T19:03:03.248Z,45.67
2023-02-16T19:05:30.124Z,49.38
2023-02-16T19:07:56.744Z,46.13
2023-02-16T19:10:24.918Z,53.17
2023-02-16T19:12:51.548Z,46.95
2023-02-16T19:15:18.150Z,42.63
2023-02-16T19:17:44.822Z,47.72
2023-02-16T19:20:14.443Z,47.78
2023-02-16T19:22:41.210Z,46.15
2023-02-16T19:25:07.902Z,45.75
2023-02-16T19:27:34.835Z,44.58
2023-02-16T19:30:01.630Z,56.20
2023-02-16T19:32:28.362Z,51.67
2023-02-16T19:34:55.046Z,52.92
2023-02-16T19:37:21.751Z,45.65
2023-02-16T19:39:48.326Z,46.00
2023-02-16T19:42:15.467Z,45.22
2023-02-16T19:44:42.062Z,45.22
2023-02-16T19:47:08.679Z,46.53
2023-02-16T19:49:36.572Z,48.47
2023-02-16T19:52:04.269Z,46.97
2023-02-16T19:54:34.754Z,44.25
2023-02-16T19:57:02.906Z,47.10
2023-02-16T19:59:29.905Z,44.28
2023-02-16T20:01:58.913Z,48.15
2023-02-16T20:04:25.554Z,43.47
2023-02-16T20:06:54.331Z,50.90
2023-02-16T20:09:22.006Z,44.60
2023-02-16T20:11:48.775Z,42.17
2023-02-16T20:14:15.366Z,45.20
2023-02-16T20:16:42.042Z,43.83
2023-02-16T20:19:09.590Z,42.10
2023-02-16T20:21:36.279Z,41.17
2023-02-16T20:24:05.372Z,44.05
2023-02-16T20:26:35.240Z,41.13
2023-02-16T20:29:03.237Z,44.50
2023-02-16T20:31:37.499Z,48.08
2023-02-16T20:34:05.162Z,45.97
2023-02-16T20:36:32.312Z,40.63
2023-02-16T20:38:59.148Z,45.80
2023-02-16T20:41:25.874Z,43.63
2023-02-16T20:43:52.643Z,45.78
2023-02-16T20:46:19.559Z,45.03
2023-02-16T20:48:46.477Z,50.80
2023-02-16T20:51:13.877Z,46.78
2023-02-16T20:53:40.910Z,42.90
2023-02-16T20:56:16.770Z,49.33
2023-02-16T20:58:45.295Z,47.22
2023-02-16T21:01:23.588Z,44.33
2023-02-16T21:03:51.845Z,46.83
2023-02-16T21:06:18.896Z,44.95
2023-02-16T21:08:45.644Z,47.38
2023-02-16T21:11:12.648Z,48.55
2023-02-16T21:13:40.342Z,52.10
2023-02-16T21:16:08.256Z,44.60
2023-02-16T21:18:36.604Z,44.72
2023-02-16T21:21:04.324Z,45.50
2023-02-16T21:23:31.163Z,49.25
2023-02-16T21:26:03.748Z,50.45
2023-02-16T21:28:30.748Z,46.55
2023-02-16T21:31:02.575Z,49.33
2023-02-16T21:33:29.313Z,53.38
2023-02-16T21:36:02.989Z,55.83
2023-02-16T21:38:29.635Z,49.45
2023-02-16T21:41:24.888Z,52.38
2023-02-16T21:44:08.527Z,50.53
2023-02-16T21:46:55.315Z,52.55
2023-02-16T21:49:22.038Z,48.90
2023-02-16T21:51:48.913Z,47.35
2023-02-16T21:54:18.221Z,47.83
2023-02-16T21:56:49.290Z,49.78
2023-02-16T21:59:17.264Z,49.80
2023-02-16T22:01:45.987Z,46.78
2023-02-16T22:04:15.433Z,49.92
2023-02-16T22:06:44.752Z,46.28
2023-02-16T22:09:14.812Z,47.50
2023-02-16T22:11:41.698Z,47.22
2023-02-16T22:14:08.411Z,46.17
2023-02-16T22:16:39.209Z,48.67
2023-02-16T22:19:08.626Z,47.13
2023-02-16T22:21:37.743Z,46.33
2023-02-16T22:24:05.504Z,43.63
2023-02-16T22:26:34.096Z,45.22
2023-02-16T22:29:03.179Z,45.88
2023-02-16T22:31:29.983Z,49.20
2023-02-16T22:34:11.300Z,46.50
2023-02-16T22:36:37.997Z,43.35
2023-02-16T22:39:04.578Z,42.20
2023-02-16T22:41:32.789Z,46.05
2023-02-16T22:43:59.956Z,43.78
2023-02-16T22:46:27.761Z,36.42
2023-02-16T22:48:55.861Z,42.55
2023-02-16T22:51:22.487Z,38.50
2023-02-16T22:53:48.997Z,41.30
2023-02-16T22:56:17.590Z,43.53
2023-02-16T22:58:44.932Z,40.55
2023-02-16T23:01:20.492Z,49.25
2023-02-16T23:03:53.531Z,45.95
2023-02-16T23:06:22.898Z,39.55
2023-02-16T23:09:04.832Z,39.13
2023-02-16T23:11:31.875Z,38.45
2023-02-16T23:13:58.530Z,45.90
2023-02-16T23:16:27.209Z,42.30
2023-02-16T23:18:58.369Z,39.28
2023-02-16T23:21:28.780Z,39.08
2023-02-16T23:23:55.455Z,39.22
2023-02-16T23:26:27.089Z,37.17
2023-02-16T23:28:56.160Z,36.58
2023-02-16T23:31:23.236Z,36.97
2023-02-16T23:33:50.577Z,38.97
2023-02-16T23:36:17.628Z,35.80
2023-02-16T23:38:44.155Z,38.22
2023-02-16T23:41:12.866Z,36.38
2023-02-16T23:43:39.900Z,38.28
2023-02-16T23:46:06.895Z,36.95
2023-02-16T23:48:34.134Z,40.53
2023-02-16T23:51:00.630Z,40.00
2023-02-16T23:53:28.085Z,33.50
2023-02-16T23:56:14.753Z,39.33
2023-02-16T23:58:44.938Z,38.58
